sensor_id;sensor_type;location;lat;lon;timestamp;P1;durP1;ratioP1;P2;durP2;ratioP2
38935;SDS011;25541;47.458;9.644;2022-11-15T03:46:17;92.53;;;9.07;;
38935;SDS011;25541;47.458;9.644;2022-11-15T03:48:49;42.60;;;9.15;;
38935;SDS011;25541;47.458;9.644;2022-11-15T03:51:18;52.13;;;9.43;;
38935;SDS011;25541;47.458;9.644;2022-11-15T03:53:45;43.28;;;8.07;;
38935;SDS011;25541;47.458;9.644;2022-11-15T03:56:11;43.03;;;7.38;;
38935;SDS011;25541;47.458;9.644;2022-11-15T03:58:36;65.93;;;9.23;;
38935;SDS011;25541;47.458;9.644;2022-11-15T04:01:02;134.98;;;9.95;;
38935;SDS011;25541;47.458;9.644;2022-11-15T04:03:29;229.77;;;11.07;;
38935;SDS011;25541;47.458;9.644;2022-11-15T04:05:54;226.52;;;10.23;;
38935;SDS011;25541;47.458;9.644;2022-11-15T04:08:20;206.98;;;11.13;;
38935;SDS011;25541;47.458;9.644;2022-11-15T04:10:48;159.85;;;9.88;;
38935;SDS011;25541;47.458;9.644;2022-11-15T04:13:14;246.05;;;10.60;;
38935;SDS011;25541;47.458;9.644;2022-11-15T04:15:40;291.73;;;11.82;;
38935;SDS011;25541;47.458;9.644;2022-11-15T04:18:05;101.95;;;9.00;;
38935;SDS011;25541;47.458;9.644;2022-11-15T04:20:31;172.65;;;10.10;;
38935;SDS011;25541;47.458;9.644;2022-11-15T04:23:19;181.05;;;12.02;;
38935;SDS011;25541;47.458;9.644;2022-11-15T04:26:09;76.07;;;7.43;;
38935;SDS011;25541;47.458;9.644;2022-11-15T04:28:43;89.55;;;7.22;;
38935;SDS011;25541;47.458;9.644;2022-11-15T04:31:27;115.82;;;7.95;;
38935;SDS011;25541;47.458;9.644;2022-11-15T04:33:53;26.45;;;5.75;;
38935;SDS011;25541;47.458;9.644;2022-11-15T04:36:19;21.45;;;6.30;;
38935;SDS011;25541;47.458;9.644;2022-11-15T04:39:04;167.77;;;7.60;;
38935;SDS011;25541;47.458;9.644;2022-11-15T04:41:29;32.90;;;4.85;;
38935;SDS011;25541;47.458;9.644;2022-11-15T04:43:55;87.55;;;6.78;;
38935;SDS011;25541;47.458;9.644;2022-11-15T04:46:21;34.15;;;5.60;;
38935;SDS011;25541;47.458;9.644;2022-11-15T04:48:48;53.40;;;5.38;;
38935;SDS011;25541;47.458;9.644;2022-11-15T04:51:14;32.47;;;5.35;;
38935;SDS011;25541;47.458;9.644;2022-11-15T04:53:40;20.33;;;5.22;;
38935;SDS011;25541;47.458;9.644;2022-11-15T04:56:06;26.23;;;6.15;;
38935;SDS011;25541;47.458;9.644;2022-11-15T04:58:32;10.95;;;5.15;;
38935;SDS011;25541;47.458;9.644;2022-11-15T05:00:58;11.18;;;5.95;;
38935;SDS011;25541;47.458;9.644;2022-11-15T05:03:35;9.13;;;5.00;;
38935;SDS011;25541;47.458;9.644;2022-11-15T05:06:19;13.48;;;5.55;;
38935;SDS011;25541;47.458;9.644;2022-11-15T05:08:44;10.60;;;5.72;;
38935;SDS011;25541;47.458;9.644;2022-11-15T05:11:10;10.32;;;5.13;;
38935;SDS011;25541;47.458;9.644;2022-11-15T05:13:36;8.18;;;4.55;;
38935;SDS011;25541;47.458;9.644;2022-11-15T05:16:01;11.13;;;5.32;;
38935;SDS011;25541;47.458;9.644;2022-11-15T05:18:27;9.25;;;4.97;;
38935;SDS011;25541;47.458;9.644;2022-11-15T05:20:53;9.85;;;5.63;;
38935;SDS011;25541;47.458;9.644;2022-11-15T05:23:18;8.85;;;4.53;;
38935;SDS011;25541;47.458;9.644;2022-11-15T05:25:44;11.57;;;5.40;;
38935;SDS011;25541;47.458;9.644;2022-11-15T05:28:09;11.32;;;5.43;;
38935;SDS011;25541;47.458;9.644;2022-11-15T05:30:35;9.40;;;5.05;;
38935;SDS011;25541;47.458;9.644;2022-11-15T05:33:01;9.60;;;5.43;;
38935;SDS011;25541;47.458;9.644;2022-11-15T05:35:29;11.57;;;5.60;;
38935;SDS011;25541;47.458;9.644;2022-11-15T05:37:58;10.00;;;4.80;;
38935;SDS011;25541;47.458;9.644;2022-11-15T05:40:24;11.27;;;6.05;;
38935;SDS011;25541;47.458;9.644;2022-11-15T05:42:51;12.57;;;6.18;;
38935;SDS011;25541;47.458;9.644;2022-11-15T05:45:17;12.48;;;6.20;;
38935;SDS011;25541;47.458;9.644;2022-11-15T05:47:42;11.15;;;5.93;;
38935;SDS011;25541;47.458;9.644;2022-11-15T05:50:11;10.85;;;5.65;;
38935;SDS011;25541;47.458;9.644;2022-11-15T05:52:39;10.68;;;5.45;;
38935;SDS011;25541;47.458;9.644;2022-11-15T05:55:05;12.10;;;5.85;;
38935;SDS011;25541;47.458;9.644;2022-11-15T05:57:32;11.82;;;5.65;;
38935;SDS011;25541;47.458;9.644;2022-11-15T05:59:58;16.13;;;8.43;;
38935;SDS011;25541;47.458;9.644;2022-11-15T06:02:24;11.57;;;5.80;;
38935;SDS011;25541;47.458;9.644;2022-11-15T06:04:49;12.13;;;6.85;;
38935;SDS011;25541;47.458;9.644;2022-11-15T06:07:15;14.70;;;7.55;;
38935;SDS011;25541;47.458;9.644;2022-11-15T06:09:40;19.80;;;7.05;;
38935;SDS011;25541;47.458;9.644;2022-11-15T06:12:06;14.60;;;7.55;;
38935;SDS011;25541;47.458;9.644;2022-11-15T06:14:32;10.98;;;6.13;;
38935;SDS011;25541;47.458;9.644;2022-11-15T06:16:57;11.82;;;5.68;;
38935;SDS011;25541;47.458;9.644;2022-11-15T06:19:23;11.40;;;6.70;;
38935;SDS011;25541;47.458;9.644;2022-11-15T06:21:49;17.80;;;7.97;;
38935;SDS011;25541;47.458;9.644;2022-11-15T06:24:14;12.50;;;6.45;;
38935;SDS011;25541;47.458;9.644;2022-11-15T06:26:40;16.98;;;7.00;;
38935;SDS011;25541;47.458;9.644;2022-11-15T06:29:06;11.82;;;6.63;;
38935;SDS011;25541;47.458;9.644;2022-11-15T06:31:32;14.30;;;6.78;;
38935;SDS011;25541;47.458;9.644;2022-11-15T06:33:58;14.32;;;6.78;;
38935;SDS011;25541;47.458;9.644;2022-11-15T06:36:24;12.20;;;5.78;;
38935;SDS011;25541;47.458;9.644;2022-11-15T06:38:50;13.48;;;6.60;;
38935;SDS011;25541;47.458;9.644;2022-11-15T06:41:15;14.15;;;6.43;;
38935;SDS011;25541;47.458;9.644;2022-11-15T06:43:42;29.95;;;6.30;;
38935;SDS011;25541;47.458;9.644;2022-11-15T06:46:08;17.40;;;6.80;;
38935;SDS011;25541;47.458;9.644;2022-11-15T06:48:34;14.18;;;6.60;;
38935;SDS011;25541;47.458;9.644;2022-11-15T06:51:00;13.65;;;6.95;;
38935;SDS011;25541;47.458;9.644;2022-11-15T06:53:27;15.32;;;8.07;;
38935;SDS011;25541;47.458;9.644;2022-11-15T06:55:57;19.52;;;10.13;;
38935;SDS011;25541;47.458;9.644;2022-11-15T06:58:27;24.98;;;9.45;;
38935;SDS011;25541;47.458;9.644;2022-11-15T07:00:53;13.65;;;6.72;;
38935;SDS011;25541;47.458;9.644;2022-11-15T07:03:19;11.63;;;6.28;;
38935;SDS011;25541;47.458;9.644;2022-11-15T07:05:51;15.43;;;8.63;;
38935;SDS011;25541;47.458;9.644;2022-11-15T07:08:21;25.13;;;7.32;;
38935;SDS011;25541;47.458;9.644;2022-11-15T07:10:48;84.05;;;9.27;;
38935;SDS011;25541;47.458;9.644;2022-11-15T07:13:14;41.72;;;8.75;;
38935;SDS011;25541;47.458;9.644;2022-11-15T07:15:39;46.70;;;9.85;;
38935;SDS011;25541;47.458;9.644;2022-11-15T07:18:05;38.60;;;10.90;;
38935;SDS011;25541;47.458;9.644;2022-11-15T07:20:31;58.53;;;11.25;;
38935;SDS011;25541;47.458;9.644;2022-11-15T07:23:00;71.60;;;13.48;;
38935;SDS011;25541;47.458;9.644;2022-11-15T07:25:27;59.75;;;12.55;;
38935;SDS011;25541;47.458;9.644;2022-11-15T07:27:56;60.95;;;12.07;;
38935;SDS011;25541;47.458;9.644;2022-11-15T07:30:22;72.90;;;12.40;;
38935;SDS011;25541;47.458;9.644;2022-11-15T07:32:52;107.43;;;11.48;;
38935;SDS011;25541;47.458;9.644;2022-11-15T07:35:21;56.45;;;12.27;;
38935;SDS011;25541;47.458;9.644;2022-11-15T07:37:53;53.25;;;12.32;;
38935;SDS011;25541;47.458;9.644;2022-11-15T07:40:27;36.05;;;10.23;;
38935;SDS011;25541;47.458;9.644;2022-11-15T07:43:00;38.95;;;11.70;;
38935;SDS011;25541;47.458;9.644;2022-11-15T07:45:27;38.20;;;10.93;;
38935;SDS011;25541;47.458;9.644;2022-11-15T07:47:53;41.95;;;10.18;;
38935;SDS011;25541;47.458;9.644;2022-11-15T07:50:20;49.85;;;10.82;;
38935;SDS011;25541;47.458;9.644;2022-11-15T07:52:47;63.42;;;10.82;;
38935;SDS011;25541;47.458;9.644;2022-11-15T07:55:17;97.03;;;13.13;;
38935;SDS011;25541;47.458;9.644;2022-11-15T07:57:43;75.78;;;12.05;;
38935;SDS011;25541;47.458;9.644;2022-11-15T08:00:09;35.60;;;10.38;;
38935;SDS011;25541;47.458;9.644;2022-11-15T08:02:35;49.03;;;10.48;;
38935;SDS011;25541;47.458;9.644;2022-11-15T08:05:00;53.47;;;9.30;;
38935;SDS011;25541;47.458;9.644;2022-11-15T08:07:28;57.22;;;10.13;;
38935;SDS011;25541;47.458;9.644;2022-11-15T08:09:55;76.15;;;9.35;;
38935;SDS011;25541;47.458;9.644;2022-11-15T08:12:21;183.10;;;10.90;;
38935;SDS011;25541;47.458;9.644;2022-11-15T08:14:47;130.68;;;12.63;;
38935;SDS011;25541;47.458;9.644;2022-11-15T08:17:13;53.20;;;10.70;;
38935;SDS011;25541;47.458;9.644;2022-11-15T08:19:39;54.53;;;9.93;;
38935;SDS011;25541;47.458;9.644;2022-11-15T08:22:04;88.07;;;9.88;;
38935;SDS011;25541;47.458;9.644;2022-11-15T08:24:30;73.75;;;10.23;;
38935;SDS011;25541;47.458;9.644;2022-11-15T08:26:56;139.98;;;9.20;;
38935;SDS011;25541;47.458;9.644;2022-11-15T08:29:21;138.80;;;9.90;;
38935;SDS011;25541;47.458;9.644;2022-11-15T08:31:47;43.42;;;8.93;;
38935;SDS011;25541;47.458;9.644;2022-11-15T08:34:13;185.70;;;9.85;;
38935;SDS011;25541;47.458;9.644;2022-11-15T08:36:38;63.85;;;8.60;;
38935;SDS011;25541;47.458;9.644;2022-11-15T08:39:04;70.43;;;8.10;;
38935;SDS011;25541;47.458;9.644;2022-11-15T08:41:31;61.60;;;8.27;;
38935;SDS011;25541;47.458;9.644;2022-11-15T08:43:58;26.38;;;8.07;;
38935;SDS011;25541;47.458;9.644;2022-11-15T08:46:24;16.17;;;6.97;;
38935;SDS011;25541;47.458;9.644;2022-11-15T08:48:50;12.20;;;6.63;;
38935;SDS011;25541;47.458;9.644;2022-11-15T08:51:15;17.70;;;7.00;;
38935;SDS011;25541;47.458;9.644;2022-11-15T08:53:41;13.23;;;6.70;;
38935;SDS011;25541;47.458;9.644;2022-11-15T08:56:08;15.32;;;7.32;;
38935;SDS011;25541;47.458;9.644;2022-11-15T08:58:34;14.93;;;6.97;;
38935;SDS011;25541;47.458;9.644;2022-11-15T09:01:01;15.80;;;8.18;;
38935;SDS011;25541;47.458;9.644;2022-11-15T09:03:26;14.20;;;6.57;;
38935;SDS011;25541;47.458;9.644;2022-11-15T09:05:55;14.38;;;6.55;;
38935;SDS011;25541;47.458;9.644;2022-11-15T09:08:25;11.20;;;6.15;;
38935;SDS011;25541;47.458;9.644;2022-11-15T09:10:54;11.73;;;6.70;;
38935;SDS011;25541;47.458;9.644;2022-11-15T09:13:20;12.65;;;7.03;;
38935;SDS011;25541;47.458;9.644;2022-11-15T09:15:46;11.00;;;6.57;;
38935;SDS011;25541;47.458;9.644;2022-11-15T09:18:12;13.18;;;6.20;;
38935;SDS011;25541;47.458;9.644;2022-11-15T09:20:37;10.65;;;6.20;;
38935;SDS011;25541;47.458;9.644;2022-11-15T09:23:04;10.98;;;6.10;;
38935;SDS011;25541;47.458;9.644;2022-11-15T09:25:30;10.98;;;5.60;;
38935;SDS011;25541;47.458;9.644;2022-11-15T09:27:56;11.05;;;6.05;;
38935;SDS011;25541;47.458;9.644;2022-11-15T09:30:23;12.13;;;6.00;;
38935;SDS011;25541;47.458;9.644;2022-11-15T09:32:49;17.27;;;5.65;;
38935;SDS011;25541;47.458;9.644;2022-11-15T09:35:15;9.23;;;5.35;;
38935;SDS011;25541;47.458;9.644;2022-11-15T09:37:41;10.18;;;5.32;;
38935;SDS011;25541;47.458;9.644;2022-11-15T09:40:09;13.07;;;5.32;;
38935;SDS011;25541;47.458;9.644;2022-11-15T09:51:08;8.68;;;4.90;;
38935;SDS011;25541;47.458;9.644;2022-11-15T09:53:41;8.05;;;5.03;;
38935;SDS011;25541;47.458;9.644;2022-11-15T09:56:16;9.77;;;5.65;;
38935;SDS011;25541;47.458;9.644;2022-11-15T10:04:08;10.43;;;5.18;;
38935;SDS011;25541;47.458;9.644;2022-11-15T10:06:34;8.20;;;5.38;;
38935;SDS011;25541;47.458;9.644;2022-11-15T10:09:06;11.77;;;6.03;;
38935;SDS011;25541;47.458;9.644;2022-11-15T10:11:38;10.55;;;5.30;;
38935;SDS011;25541;47.458;9.644;2022-11-15T10:14:18;8.13;;;5.28;;
38935;SDS011;25541;47.458;9.644;2022-11-15T10:22:26;9.68;;;5.53;;
38935;SDS011;25541;47.458;9.644;2022-11-15T10:25:12;9.57;;;5.15;;
38935;SDS011;25541;47.458;9.644;2022-11-15T10:27:44;8.50;;;5.30;;
38935;SDS011;25541;47.458;9.644;2022-11-15T10:30:17;8.02;;;5.32;;
38935;SDS011;25541;47.458;9.644;2022-11-15T10:32:44;8.02;;;4.63;;
38935;SDS011;25541;47.458;9.644;2022-11-15T10:37:45;7.20;;;4.68;;
38935;SDS011;25541;47.458;9.644;2022-11-15T10:40:17;12.32;;;6.75;;
38935;SDS011;25541;47.458;9.644;2022-11-15T10:42:47;13.65;;;6.43;;
38935;SDS011;25541;47.458;9.644;2022-11-15T10:45:32;11.75;;;5.65;;
38935;SDS011;25541;47.458;9.644;2022-11-15T10:50:43;9.13;;;5.38;;
38935;SDS011;25541;47.458;9.644;2022-11-15T10:53:24;11.45;;;4.28;;
38935;SDS011;25541;47.458;9.644;2022-11-15T10:55:56;8.75;;;4.90;;
38935;SDS011;25541;47.458;9.644;2022-11-15T10:58:31;8.45;;;5.15;;
38935;SDS011;25541;47.458;9.644;2022-11-15T11:01:16;13.25;;;5.10;;
38935;SDS011;25541;47.458;9.644;2022-11-15T11:03:44;11.05;;;5.68;;
38935;SDS011;25541;47.458;9.644;2022-11-15T11:06:24;8.35;;;4.38;;
38935;SDS011;25541;47.458;9.644;2022-11-15T11:08:54;8.35;;;4.95;;
38935;SDS011;25541;47.458;9.644;2022-11-15T11:11:22;14.20;;;6.20;;
38935;SDS011;25541;47.458;9.644;2022-11-15T11:13:48;10.82;;;6.40;;
38935;SDS011;25541;47.458;9.644;2022-11-15T11:21:49;8.10;;;4.68;;
38935;SDS011;25541;47.458;9.644;2022-11-15T11:24:44;9.10;;;4.82;;
38935;SDS011;25541;47.458;9.644;2022-11-15T11:33:00;10.73;;;4.82;;
38935;SDS011;25541;47.458;9.644;2022-11-15T11:38:42;12.38;;;5.90;;
38935;SDS011;25541;47.458;9.644;2022-11-15T11:49:44;11.43;;;4.93;;
38935;SDS011;25541;47.458;9.644;2022-11-15T11:55:01;8.23;;;4.53;;
38935;SDS011;25541;47.458;9.644;2022-11-15T12:00:22;8.27;;;4.88;;
38935;SDS011;25541;47.458;9.644;2022-11-15T12:02:59;9.45;;;4.68;;
38935;SDS011;25541;47.458;9.644;2022-11-15T12:13:42;12.07;;;4.70;;
38935;SDS011;25541;47.458;9.644;2022-11-15T12:18:52;9.50;;;5.07;;
38935;SDS011;25541;47.458;9.644;2022-11-15T12:23:53;10.07;;;5.10;;
38935;SDS011;25541;47.458;9.644;2022-11-15T12:26:26;8.75;;;5.03;;
38935;SDS011;25541;47.458;9.644;2022-11-15T12:28:58;8.23;;;4.78;;
38935;SDS011;25541;47.458;9.644;2022-11-15T12:31:28;8.98;;;4.72;;
38935;SDS011;25541;47.458;9.644;2022-11-15T12:34:00;10.48;;;4.78;;
38935;SDS011;25541;47.458;9.644;2022-11-15T12:36:48;10.10;;;4.75;;
38935;SDS011;25541;47.458;9.644;2022-11-15T12:39:16;8.98;;;5.32;;
38935;SDS011;25541;47.458;9.644;2022-11-15T12:41:43;8.88;;;5.43;;
38935;SDS011;25541;47.458;9.644;2022-11-15T12:47:08;9.40;;;4.85;;
38935;SDS011;25541;47.458;9.644;2022-11-15T12:49:51;9.85;;;5.03;;
38935;SDS011;25541;47.458;9.644;2022-11-15T12:52:17;10.13;;;5.22;;
38935;SDS011;25541;47.458;9.644;2022-11-15T12:54:51;12.23;;;5.05;;
38935;SDS011;25541;47.458;9.644;2022-11-15T12:57:23;10.77;;;5.38;;
38935;SDS011;25541;47.458;9.644;2022-11-15T12:59:57;8.70;;;5.28;;
38935;SDS011;25541;47.458;9.644;2022-11-15T13:17:40;11.85;;;6.38;;
38935;SDS011;25541;47.458;9.644;2022-11-15T13:30:39;13.50;;;6.68;;
38935;SDS011;25541;47.458;9.644;2022-11-15T13:35:50;11.38;;;5.95;;
38935;SDS011;25541;47.458;9.644;2022-11-15T13:38:28;12.18;;;6.22;;
38935;SDS011;25541;47.458;9.644;2022-11-15T13:40:56;10.57;;;6.13;;
38935;SDS011;25541;47.458;9.644;2022-11-15T13:48:37;12.50;;;6.10;;
38935;SDS011;25541;47.458;9.644;2022-11-15T13:51:05;11.70;;;6.60;;
38935;SDS011;25541;47.458;9.644;2022-11-15T13:56:31;19.20;;;5.88;;
38935;SDS011;25541;47.458;9.644;2022-11-15T13:58:59;13.35;;;5.15;;
38935;SDS011;25541;47.458;9.644;2022-11-15T14:01:26;9.38;;;4.13;;
38935;SDS011;25541;47.458;9.644;2022-11-15T14:03:59;10.05;;;4.63;;
38935;SDS011;25541;47.458;9.644;2022-11-15T14:06:26;10.88;;;4.63;;
38935;SDS011;25541;47.458;9.644;2022-11-15T14:09:36;10.77;;;4.22;;
38935;SDS011;25541;47.458;9.644;2022-11-15T14:11:58;42.47;;;5.80;;
38935;SDS011;25541;47.458;9.644;2022-11-15T14:14:25;47.45;;;4.45;;
38935;SDS011;25541;47.458;9.644;2022-11-15T14:16:53;12.98;;;3.10;;
38935;SDS011;25541;47.458;9.644;2022-11-15T14:24:47;6.60;;;2.42;;
38935;SDS011;25541;47.458;9.644;2022-11-15T14:27:30;15.05;;;2.78;;
38935;SDS011;25541;47.458;9.644;2022-11-15T14:29:56;9.63;;;2.60;;
38935;SDS011;25541;47.458;9.644;2022-11-15T14:32:23;8.45;;;2.95;;
38935;SDS011;25541;47.458;9.644;2022-11-15T14:34:54;6.63;;;3.65;;
38935;SDS011;25541;47.458;9.644;2022-11-15T14:39:58;11.82;;;4.43;;
38935;SDS011;25541;47.458;9.644;2022-11-15T14:42:24;18.42;;;5.15;;
38935;SDS011;25541;47.458;9.644;2022-11-15T14:44:50;16.85;;;5.47;;
38935;SDS011;25541;47.458;9.644;2022-11-15T14:47:16;22.30;;;11.38;;
38935;SDS011;25541;47.458;9.644;2022-11-15T14:49:42;14.50;;;5.82;;
38935;SDS011;25541;47.458;9.644;2022-11-15T14:54:53;12.00;;;5.53;;
38935;SDS011;25541;47.458;9.644;2022-11-15T14:57:20;16.60;;;6.20;;
38935;SDS011;25541;47.458;9.644;2022-11-15T14:59:45;12.23;;;6.28;;
38935;SDS011;25541;47.458;9.644;2022-11-15T15:02:19;14.45;;;6.15;;
38935;SDS011;25541;47.458;9.644;2022-11-15T15:04:49;12.85;;;5.32;;
38935;SDS011;25541;47.458;9.644;2022-11-15T15:07:16;11.95;;;4.93;;
38935;SDS011;25541;47.458;9.644;2022-11-15T15:09:42;18.17;;;5.53;;
38935;SDS011;25541;47.458;9.644;2022-11-15T15:12:19;12.40;;;5.22;;
38935;SDS011;25541;47.458;9.644;2022-11-15T15:14:47;12.30;;;4.70;;
38935;SDS011;25541;47.458;9.644;2022-11-15T15:17:13;7.82;;;4.05;;
38935;SDS011;25541;47.458;9.644;2022-11-15T15:19:39;12.27;;;3.65;;
38935;SDS011;25541;47.458;9.644;2022-11-15T15:22:05;12.27;;;3.30;;
38935;SDS011;25541;47.458;9.644;2022-11-15T15:24:42;11.57;;;3.47;;
38935;SDS011;25541;47.458;9.644;2022-11-15T15:27:11;13.30;;;3.70;;
38935;SDS011;25541;47.458;9.644;2022-11-15T15:29:37;8.38;;;3.25;;
38935;SDS011;25541;47.458;9.644;2022-11-15T15:32:04;7.60;;;3.55;;
38935;SDS011;25541;47.458;9.644;2022-11-15T15:34:30;11.73;;;3.97;;
38935;SDS011;25541;47.458;9.644;2022-11-15T15:39:40;12.63;;;4.72;;
38935;SDS011;25541;47.458;9.644;2022-11-15T15:42:06;11.57;;;3.30;;
38935;SDS011;25541;47.458;9.644;2022-11-15T15:44:31;6.70;;;3.33;;
38935;SDS011;25541;47.458;9.644;2022-11-15T15:46:57;8.88;;;3.85;;
38935;SDS011;25541;47.458;9.644;2022-11-15T15:49:23;7.75;;;3.47;;
38935;SDS011;25541;47.458;9.644;2022-11-15T15:51:49;9.68;;;3.72;;
38935;SDS011;25541;47.458;9.644;2022-11-15T15:54:14;10.05;;;4.00;;
38935;SDS011;25541;47.458;9.644;2022-11-15T15:56:40;12.63;;;4.88;;
38935;SDS011;25541;47.458;9.644;2022-11-15T15:59:06;13.68;;;4.90;;
38935;SDS011;25541;47.458;9.644;2022-11-15T16:01:31;11.63;;;4.03;;
38935;SDS011;25541;47.458;9.644;2022-11-15T16:03:57;8.40;;;4.20;;
38935;SDS011;25541;47.458;9.644;2022-11-15T16:06:43;10.48;;;4.22;;
38935;SDS011;25541;47.458;9.644;2022-11-15T16:09:14;10.10;;;4.53;;
38935;SDS011;25541;47.458;9.644;2022-11-15T16:11:41;9.27;;;4.38;;
38935;SDS011;25541;47.458;9.644;2022-11-15T16:14:08;14.13;;;5.07;;
38935;SDS011;25541;47.458;9.644;2022-11-15T16:16:34;11.35;;;4.50;;
38935;SDS011;25541;47.458;9.644;2022-11-15T16:19:01;10.02;;;4.57;;
38935;SDS011;25541;47.458;9.644;2022-11-15T16:21:27;9.63;;;4.68;;
38935;SDS011;25541;47.458;9.644;2022-11-15T16:23:53;10.88;;;4.80;;
38935;SDS011;25541;47.458;9.644;2022-11-15T16:26:24;13.85;;;5.18;;
38935;SDS011;25541;47.458;9.644;2022-11-15T16:28:52;12.05;;;5.03;;
38935;SDS011;25541;47.458;9.644;2022-11-15T16:31:18;13.32;;;5.15;;
38935;SDS011;25541;47.458;9.644;2022-11-15T16:33:46;14.85;;;4.97;;
38935;SDS011;25541;47.458;9.644;2022-11-15T16:36:18;11.30;;;5.05;;
38935;SDS011;25541;47.458;9.644;2022-11-15T16:38:48;19.10;;;6.43;;
38935;SDS011;25541;47.458;9.644;2022-11-15T16:41:14;14.43;;;5.28;;
38935;SDS011;25541;47.458;9.644;2022-11-15T16:43:43;19.50;;;5.95;;
38935;SDS011;25541;47.458;9.644;2022-11-15T16:46:20;11.60;;;5.38;;
38935;SDS011;25541;47.458;9.644;2022-11-15T16:48:50;13.18;;;5.40;;
38935;SDS011;25541;47.458;9.644;2022-11-15T16:51:18;15.50;;;5.88;;
38935;SDS011;25541;47.458;9.644;2022-11-15T16:53:44;10.07;;;5.40;;
38935;SDS011;25541;47.458;9.644;2022-11-15T16:58:44;12.73;;;5.07;;
38935;SDS011;25541;47.458;9.644;2022-11-15T17:04:15;9.75;;;4.65;;
38935;SDS011;25541;47.458;9.644;2022-11-15T17:06:46;14.27;;;4.75;;
38935;SDS011;25541;47.458;9.644;2022-11-15T17:09:16;12.25;;;5.00;;
38935;SDS011;25541;47.458;9.644;2022-11-15T17:11:44;10.35;;;4.82;;
38935;SDS011;25541;47.458;9.644;2022-11-15T17:14:10;18.48;;;5.60;;
38935;SDS011;25541;47.458;9.644;2022-11-15T17:16:36;15.23;;;5.30;;
38935;SDS011;25541;47.458;9.644;2022-11-15T17:19:10;12.63;;;5.13;;
38935;SDS011;25541;47.458;9.644;2022-11-15T17:21:41;11.10;;;4.55;;
38935;SDS011;25541;47.458;9.644;2022-11-15T17:24:07;8.20;;;4.20;;
38935;SDS011;25541;47.458;9.644;2022-11-15T17:26:33;9.90;;;4.68;;
38935;SDS011;25541;47.458;9.644;2022-11-15T17:28:59;10.63;;;4.82;;
38935;SDS011;25541;47.458;9.644;2022-11-15T17:31:28;9.95;;;5.05;;
38935;SDS011;25541;47.458;9.644;2022-11-15T17:33:57;10.30;;;4.70;;
38935;SDS011;25541;47.458;9.644;2022-11-15T17:36:23;10.25;;;4.15;;
38935;SDS011;25541;47.458;9.644;2022-11-15T17:38:48;11.88;;;4.18;;
38935;SDS011;25541;47.458;9.644;2022-11-15T17:41:16;10.45;;;4.40;;
38935;SDS011;25541;47.458;9.644;2022-11-15T17:43:42;13.40;;;4.30;;
38935;SDS011;25541;47.458;9.644;2022-11-15T17:46:12;7.78;;;4.03;;
38935;SDS011;25541;47.458;9.644;2022-11-15T17:48:40;10.40;;;3.80;;
38935;SDS011;25541;47.458;9.644;2022-11-15T17:51:08;8.50;;;3.67;;
38935;SDS011;25541;47.458;9.644;2022-11-15T17:53:36;9.07;;;3.70;;
38935;SDS011;25541;47.458;9.644;2022-11-15T17:56:04;14.93;;;3.67;;
38935;SDS011;25541;47.458;9.644;2022-11-15T17:58:35;10.60;;;4.63;;
38935;SDS011;25541;47.458;9.644;2022-11-15T18:01:11;9.68;;;4.60;;
38935;SDS011;25541;47.458;9.644;2022-11-15T18:03:41;10.45;;;4.85;;
38935;SDS011;25541;47.458;9.644;2022-11-15T18:06:07;11.30;;;5.22;;
38935;SDS011;25541;47.458;9.644;2022-11-15T18:08:37;12.35;;;5.07;;
38935;SDS011;25541;47.458;9.644;2022-11-15T18:11:10;14.40;;;5.88;;
38935;SDS011;25541;47.458;9.644;2022-11-15T18:13:41;13.98;;;5.10;;
38935;SDS011;25541;47.458;9.644;2022-11-15T18:16:13;11.40;;;5.00;;
38935;SDS011;25541;47.458;9.644;2022-11-15T18:18:41;12.45;;;5.93;;
38935;SDS011;25541;47.458;9.644;2022-11-15T18:21:09;11.45;;;5.40;;
38935;SDS011;25541;47.458;9.644;2022-11-15T18:23:40;19.73;;;6.03;;
38935;SDS011;25541;47.458;9.644;2022-11-15T18:26:07;8.93;;;4.72;;
38935;SDS011;25541;47.458;9.644;2022-11-15T18:28:37;16.35;;;4.82;;
38935;SDS011;25541;47.458;9.644;2022-11-15T18:31:10;10.70;;;5.05;;
38935;SDS011;25541;47.458;9.644;2022-11-15T18:33:47;12.95;;;4.70;;
38935;SDS011;25541;47.458;9.644;2022-11-15T18:36:15;12.05;;;4.93;;
38935;SDS011;25541;47.458;9.644;2022-11-15T18:38:43;11.15;;;5.65;;
38935;SDS011;25541;47.458;9.644;2022-11-15T18:41:10;11.48;;;4.78;;
38935;SDS011;25541;47.458;9.644;2022-11-15T18:43:42;12.73;;;4.68;;
38935;SDS011;25541;47.458;9.644;2022-11-15T18:46:12;10.38;;;4.65;;
38935;SDS011;25541;47.458;9.644;2022-11-15T18:48:41;12.77;;;4.72;;
38935;SDS011;25541;47.458;9.644;2022-11-15T18:51:08;10.48;;;4.40;;
38935;SDS011;25541;47.458;9.644;2022-11-15T18:53:36;13.15;;;4.55;;
38935;SDS011;25541;47.458;9.644;2022-11-15T18:56:03;10.13;;;4.47;;
38935;SDS011;25541;47.458;9.644;2022-11-15T18:58:31;10.05;;;4.72;;
38935;SDS011;25541;47.458;9.644;2022-11-15T19:01:20;10.35;;;4.60;;
38935;SDS011;25541;47.458;9.644;2022-11-15T19:03:46;13.82;;;5.70;;
38935;SDS011;25541;47.458;9.644;2022-11-15T19:06:15;9.75;;;4.97;;
38935;SDS011;25541;47.458;9.644;2022-11-15T19:08:43;12.25;;;4.43;;
38935;SDS011;25541;47.458;9.644;2022-11-15T19:13:39;12.00;;;4.70;;
38935;SDS011;25541;47.458;9.644;2022-11-15T19:16:06;12.18;;;5.28;;
38935;SDS011;25541;47.458;9.644;2022-11-15T19:18:33;9.15;;;4.32;;
38935;SDS011;25541;47.458;9.644;2022-11-15T19:21:03;7.18;;;3.90;;
38935;SDS011;25541;47.458;9.644;2022-11-15T19:26:03;11.15;;;3.78;;
38935;SDS011;25541;47.458;9.644;2022-11-15T19:28:30;11.55;;;4.55;;
38935;SDS011;25541;47.458;9.644;2022-11-15T19:31:07;10.02;;;4.13;;
38935;SDS011;25541;47.458;9.644;2022-11-15T19:33:40;11.93;;;4.30;;
38935;SDS011;25541;47.458;9.644;2022-11-15T19:36:28;8.95;;;3.78;;
38935;SDS011;25541;47.458;9.644;2022-11-15T19:38:56;8.23;;;3.67;;
38935;SDS011;25541;47.458;9.644;2022-11-15T19:41:23;8.57;;;4.25;;
38935;SDS011;25541;47.458;9.644;2022-11-15T19:43:50;8.50;;;4.03;;
38935;SDS011;25541;47.458;9.644;2022-11-15T19:46:17;11.30;;;4.13;;
38935;SDS011;25541;47.458;9.644;2022-11-15T19:48:45;9.13;;;4.20;;
38935;SDS011;25541;47.458;9.644;2022-11-15T19:51:15;9.27;;;4.32;;
38935;SDS011;25541;47.458;9.644;2022-11-15T19:53:46;10.15;;;4.55;;
38935;SDS011;25541;47.458;9.644;2022-11-15T19:56:15;7.95;;;4.00;;
38935;SDS011;25541;47.458;9.644;2022-11-15T19:58:42;10.32;;;4.50;;
38935;SDS011;25541;47.458;9.644;2022-11-15T20:01:13;14.68;;;4.70;;
38935;SDS011;25541;47.458;9.644;2022-11-15T20:03:44;9.15;;;4.53;;
38935;SDS011;25541;47.458;9.644;2022-11-15T20:06:12;11.70;;;4.85;;
38935;SDS011;25541;47.458;9.644;2022-11-15T20:08:42;10.80;;;4.57;;
38935;SDS011;25541;47.458;9.644;2022-11-15T20:11:10;10.25;;;4.50;;
38935;SDS011;25541;47.458;9.644;2022-11-15T20:13:36;13.23;;;4.65;;
38935;SDS011;25541;47.458;9.644;2022-11-15T20:16:02;12.45;;;5.10;;
38935;SDS011;25541;47.458;9.644;2022-11-15T20:18:29;10.77;;;4.70;;
38935;SDS011;25541;47.458;9.644;2022-11-15T20:20:54;12.98;;;4.97;;
38935;SDS011;25541;47.458;9.644;2022-11-15T20:23:22;14.30;;;4.80;;
38935;SDS011;25541;47.458;9.644;2022-11-15T20:25:48;11.00;;;5.28;;
38935;SDS011;25541;47.458;9.644;2022-11-15T20:28:16;13.45;;;6.00;;
38935;SDS011;25541;47.458;9.644;2022-11-15T20:30:43;17.88;;;8.00;;
38935;SDS011;25541;47.458;9.644;2022-11-15T20:33:13;13.85;;;6.00;;
38935;SDS011;25541;47.458;9.644;2022-11-15T20:35:39;10.23;;;4.65;;
38935;SDS011;25541;47.458;9.644;2022-11-15T20:38:06;19.02;;;5.30;;
38935;SDS011;25541;47.458;9.644;2022-11-15T20:40:32;13.45;;;5.25;;